createdAt,value
2018-10-11T00:00:41.012Z,8.10
2018-10-11T00:03:12.944Z,8.10
2018-10-11T00:05:40.499Z,8.10
2018-10-11T00:08:08.399Z,8.10
2018-10-11T00:13:04.396Z,8.00
2018-10-11T00:15:31.967Z,8.00
2018-10-11T00:17:59.539Z,8.10
2018-10-11T00:20:27.181Z,8.10
2018-10-11T00:22:54.799Z,8.10
2018-10-11T00:25:22.553Z,8.00
2018-10-11T00:27:50.147Z,8.00
2018-10-11T00:30:17.711Z,8.00
2018-10-11T00:32:45.419Z,8.00
2018-10-11T00:35:13.034Z,8.10
2018-10-11T00:37:40.624Z,8.10
2018-10-11T00:40:09.137Z,8.20
2018-10-11T00:42:37.759Z,8.20
2018-10-11T00:45:05.356Z,8.10
2018-10-11T00:47:32.919Z,7.80
2018-10-11T00:50:00.539Z,7.60
2018-10-11T00:52:31.583Z,7.70
2018-10-11T00:54:59.183Z,7.80
2018-10-11T00:57:26.739Z,7.70
2018-10-11T00:59:54.364Z,7.40
2018-10-11T01:02:23.068Z,7.30
2018-10-11T01:04:50.712Z,7.40
2018-10-11T01:07:18.355Z,7.40
2018-10-11T01:09:45.932Z,7.40
2018-10-11T01:12:14.668Z,7.50
2018-10-11T01:14:42.228Z,7.50
2018-10-11T01:17:09.907Z,7.60
2018-10-11T01:19:37.643Z,7.70
2018-10-11T01:22:14.219Z,7.70
2018-10-11T01:24:42.292Z,7.60
2018-10-11T01:27:10.056Z,7.50
2018-10-11T01:29:37.849Z,7.30
2018-10-11T01:32:12.756Z,7.30
2018-10-11T01:34:40.443Z,7.10
2018-10-11T01:37:08.147Z,7.10
2018-10-11T01:39:35.889Z,7.30
2018-10-11T01:42:03.735Z,7.30
2018-10-11T01:44:31.464Z,7.10
2018-10-11T01:46:59.194Z,7.00
2018-10-11T01:49:26.963Z,7.00
2018-10-11T01:54:22.124Z,7.00
2018-10-11T01:56:49.896Z,7.00
2018-10-11T01:59:17.567Z,7.20
2018-10-11T02:01:53.923Z,7.20
2018-10-11T02:04:21.779Z,7.40
2018-10-11T02:06:49.358Z,7.30
2018-10-11T02:09:16.960Z,7.40
2018-10-11T02:11:44.495Z,7.50
2018-10-11T02:14:12.114Z,7.50
2018-10-11T02:16:39.684Z,7.40
2018-10-11T02:19:07.315Z,7.30
2018-10-11T02:21:34.868Z,7.00
2018-10-11T02:24:08.175Z,6.90
2018-10-11T02:26:35.795Z,6.80
2018-10-11T02:29:03.372Z,6.80
2018-10-11T02:31:30.939Z,6.70
2018-10-11T02:34:00.610Z,6.60
2018-10-11T02:36:28.179Z,6.60
2018-10-11T02:38:55.798Z,6.70
2018-10-11T02:41:23.401Z,6.60
2018-10-11T02:43:51.043Z,6.60
2018-10-11T02:46:18.645Z,6.70
2018-10-11T02:48:46.492Z,6.70
2018-10-11T02:51:14.209Z,6.80
2018-10-11T02:53:47.563Z,6.80
2018-10-11T02:56:15.300Z,6.80
2018-10-11T02:58:48.748Z,6.60
2018-10-11T03:01:17.018Z,6.50
2018-10-11T03:03:48.055Z,6.50
2018-10-11T03:06:15.827Z,6.50
2018-10-11T03:08:43.455Z,6.40
2018-10-11T03:11:11.116Z,6.40
2018-10-11T03:13:38.899Z,6.50
2018-10-11T03:16:06.607Z,6.50
2018-10-11T03:18:34.363Z,6.50
2018-10-11T03:21:02.052Z,6.40
2018-10-11T03:23:30.851Z,6.50
2018-10-11T03:25:58.459Z,6.40
2018-10-11T03:28:26.040Z,6.10
2018-10-11T03:30:53.651Z,6.10
2018-10-11T03:33:23.360Z,5.90
2018-10-11T03:35:50.918Z,5.90
2018-10-11T03:40:45.829Z,5.80
2018-10-11T03:43:16.879Z,5.90
2018-10-11T03:45:44.515Z,6.00
2018-10-11T03:48:12.088Z,6.10
2018-10-11T03:50:39.638Z,6.10
2018-10-11T03:53:08.300Z,5.90
2018-10-11T03:55:35.861Z,6.00
2018-10-11T03:58:03.483Z,5.90
2018-10-11T04:00:31.101Z,5.80
2018-10-11T04:05:33.494Z,5.60
2018-10-11T04:08:01.045Z,5.70
2018-10-11T04:10:28.611Z,5.70
2018-10-11T04:12:57.211Z,5.60
2018-10-11T04:15:24.798Z,5.50
2018-10-11T04:17:52.289Z,5.60
2018-10-11T04:20:19.867Z,5.60
2018-10-11T04:25:16.932Z,5.50
2018-10-11T04:27:44.645Z,5.50
2018-10-11T04:30:12.376Z,5.50
2018-10-11T04:32:41.024Z,5.60
2018-10-11T04:35:08.699Z,5.60
2018-10-11T04:37:36.412Z,5.40
2018-10-11T04:40:04.106Z,5.20
2018-10-11T04:42:31.753Z,5.20
2018-10-11T04:44:59.424Z,5.30
2018-10-11T04:47:27.107Z,5.50
2018-10-11T04:49:54.799Z,5.50
2018-10-11T04:52:22.532Z,5.50
2018-10-11T04:54:50.232Z,5.50
2018-10-11T04:57:17.864Z,5.50
2018-10-11T04:59:45.592Z,5.50
2018-10-11T05:02:13.225Z,5.40
2018-10-11T05:04:41.112Z,5.20
2018-10-11T05:07:08.764Z,5.10
2018-10-11T05:09:36.267Z,5.00
2018-10-11T05:12:16.854Z,4.90
2018-10-11T05:14:44.533Z,4.80
2018-10-11T05:17:12.143Z,4.80
2018-10-11T05:19:39.711Z,4.80
2018-10-11T05:22:09.252Z,4.90
2018-10-11T05:24:36.806Z,5.00
2018-10-11T05:27:04.340Z,5.10
2018-10-11T05:32:07.997Z,5.20
2018-10-11T05:34:35.511Z,5.00
2018-10-11T05:37:03.023Z,4.90
2018-10-11T05:39:30.547Z,4.90
2018-10-11T05:42:00.199Z,5.00
2018-10-11T05:44:27.784Z,5.10
2018-10-11T05:46:55.276Z,5.10
2018-10-11T05:49:22.827Z,5.20
2018-10-11T05:51:50.385Z,5.20
2018-10-11T05:54:18.003Z,5.20
2018-10-11T05:56:45.721Z,5.30
2018-10-11T05:59:13.271Z,5.30
2018-10-11T06:01:40.867Z,5.30
2018-10-11T06:04:09.227Z,5.40
2018-10-11T06:06:36.676Z,5.40
2018-10-11T06:09:05.075Z,5.30
2018-10-11T06:11:32.619Z,5.20
2018-10-11T06:14:03.687Z,5.10
2018-10-11T06:16:31.279Z,5.10
2018-10-11T06:18:58.960Z,5.10
2018-10-11T06:21:26.519Z,5.10
2018-10-11T06:24:02.432Z,5.10
2018-10-11T06:26:29.944Z,5.10
2018-10-11T06:28:57.512Z,5.00
2018-10-11T06:31:25.083Z,5.10
2018-10-11T06:34:04.315Z,5.10
2018-10-11T06:36:32.295Z,5.30
2018-10-11T06:39:00.399Z,5.40
2018-10-11T06:41:27.972Z,5.60
2018-10-11T06:43:55.727Z,5.70
2018-10-11T06:46:23.241Z,5.90
2018-10-11T06:53:54.116Z,6.60
2018-10-11T06:56:21.704Z,6.80
2018-10-11T06:58:49.323Z,7.00
2018-10-11T07:01:16.911Z,7.20
2018-10-11T07:03:48.664Z,7.30
2018-10-11T07:06:16.186Z,7.30
2018-10-11T07:08:43.804Z,7.50
2018-10-11T07:11:11.460Z,7.70
2018-10-11T07:16:11.368Z,8.20
2018-10-11T07:18:39.005Z,8.30
2018-10-11T07:21:06.639Z,8.50
2018-10-11T07:23:41.661Z,8.80
2018-10-11T07:26:09.345Z,9.10
2018-10-11T07:31:04.381Z,9.50
2018-10-11T07:33:35.273Z,9.60
2018-10-11T07:36:02.984Z,9.50
2018-10-11T07:38:30.632Z,9.80
2018-10-11T07:43:25.804Z,10.00
2018-10-11T07:45:53.490Z,10.00
2018-10-11T07:48:21.178Z,10.10
2018-10-11T07:50:48.872Z,10.30
2018-10-11T07:53:17.607Z,10.50
2018-10-11T07:55:45.308Z,10.80
2018-10-11T07:58:12.988Z,11.10
2018-10-11T08:00:40.695Z,11.30
2018-10-11T08:03:08.440Z,11.50
2018-10-11T08:05:36.133Z,11.60
2018-10-11T08:08:03.820Z,12.00
2018-10-11T08:10:31.572Z,12.30
2018-10-11T08:13:04.176Z,12.60
2018-10-11T08:15:31.868Z,13.00
2018-10-11T08:17:59.927Z,13.30
2018-10-11T08:20:27.337Z,13.60
2018-10-11T08:23:06.644Z,14.00
2018-10-11T08:28:01.760Z,14.50
2018-10-11T08:30:29.393Z,14.70
2018-10-11T08:32:57.201Z,15.00
2018-10-11T08:35:24.815Z,15.40
2018-10-11T08:37:52.732Z,15.50
2018-10-11T08:40:20.607Z,15.60
2018-10-11T08:42:49.063Z,15.70
2018-10-11T08:45:16.761Z,15.90
2018-10-11T08:50:11.909Z,16.20
2018-10-11T08:52:39.556Z,16.30
2018-10-11T08:55:07.261Z,16.20
2018-10-11T08:57:35.010Z,16.30
2018-10-11T09:00:02.671Z,16.60
2018-10-11T09:02:30.424Z,16.80
2018-10-11T09:04:58.142Z,17.20
2018-10-11T09:07:25.900Z,17.40
2018-10-11T09:09:53.758Z,17.60
2018-10-11T09:12:21.432Z,17.90
2018-10-11T09:17:16.548Z,18.50
2018-10-11T09:19:44.224Z,18.70
2018-10-11T09:22:12.967Z,18.90
2018-10-11T09:24:40.665Z,19.00
2018-10-11T09:29:35.749Z,19.20
2018-10-11T09:32:04.536Z,19.40
2018-10-11T09:34:32.312Z,19.60
2018-10-11T09:36:59.994Z,19.60
2018-10-11T09:39:27.660Z,19.70
2018-10-11T09:44:25.895Z,19.90
2018-10-11T09:46:53.580Z,20.10
2018-10-11T09:49:21.356Z,20.20
2018-10-11T09:51:49.048Z,20.40
2018-10-11T09:54:16.688Z,20.60
2018-10-11T09:57:47.568Z,20.70
2018-10-11T10:00:20.752Z,21.00
2018-10-11T10:02:49.232Z,21.20
2018-10-11T10:05:16.932Z,21.30
2018-10-11T10:07:44.712Z,21.50
2018-10-11T10:12:54.838Z,22.00
2018-10-11T10:15:22.561Z,22.20
2018-10-11T10:17:50.333Z,22.30
2018-10-11T10:20:18.014Z,22.70
2018-10-11T10:22:47.944Z,22.80
2018-10-11T10:25:15.608Z,23.30
2018-10-11T10:27:43.358Z,23.20
2018-10-11T10:30:16.515Z,23.30
2018-10-11T10:32:44.399Z,23.60
2018-10-11T10:35:12.115Z,23.90
2018-10-11T10:37:39.844Z,24.00
2018-10-11T10:40:07.626Z,24.30
2018-10-11T10:42:35.184Z,24.20
2018-10-11T10:47:30.304Z,23.60
2018-10-11T10:49:57.952Z,24.00
2018-10-11T10:55:13.832Z,24.40
2018-10-11T10:57:42.204Z,24.90
2018-10-11T11:00:09.851Z,25.30
2018-10-11T11:02:38.460Z,25.30
2018-10-11T11:05:05.975Z,25.70
2018-10-11T11:07:33.578Z,25.90
2018-10-11T11:10:01.272Z,26.10
2018-10-11T11:12:29.016Z,25.60
2018-10-11T11:14:56.709Z,26.20
2018-10-11T11:17:24.417Z,25.90
2018-10-11T11:19:52.251Z,26.10
2018-10-11T11:22:29.176Z,26.50
2018-10-11T11:24:56.896Z,26.90
2018-10-11T11:27:24.560Z,26.70
2018-10-11T11:29:52.232Z,26.70
2018-10-11T11:32:20.045Z,27.10
2018-10-11T11:34:47.716Z,27.10
2018-10-11T11:37:15.434Z,27.00
2018-10-11T11:39:43.041Z,27.20
2018-10-11T11:42:18.072Z,27.70
2018-10-11T11:44:45.648Z,27.60
2018-10-11T11:49:40.728Z,28.60
2018-10-11T11:52:27.444Z,28.60
2018-10-11T11:54:55.317Z,28.60
2018-10-11T11:57:23.008Z,28.10
2018-10-11T11:59:50.711Z,28.40
2018-10-11T12:02:21.897Z,28.50
2018-10-11T12:04:49.604Z,29.10
2018-10-11T12:07:17.292Z,28.90
2018-10-11T12:12:24.773Z,30.70
2018-10-11T12:14:52.536Z,30.70
2018-10-11T12:17:20.176Z,30.90
2018-10-11T12:19:47.843Z,30.70
2018-10-11T12:24:42.979Z,30.20
2018-10-11T12:27:10.684Z,30.60
2018-10-11T12:29:38.420Z,30.30
2018-10-11T12:32:15.779Z,30.00
2018-10-11T12:37:10.812Z,30.50
2018-10-11T12:39:38.532Z,31.10
2018-10-11T12:44:40.864Z,30.40
2018-10-11T12:47:08.565Z,29.30
2018-10-11T12:49:39.229Z,29.10
2018-10-11T12:54:31.348Z,31.60
2018-10-11T12:56:59.175Z,31.70
2018-10-11T13:01:55.145Z,31.90
2018-10-11T13:04:22.812Z,31.00
2018-10-11T13:06:50.516Z,31.10
2018-10-11T13:09:18.271Z,31.70
2018-10-11T13:11:45.948Z,31.90
2018-10-11T13:14:13.624Z,31.90
2018-10-11T13:19:08.676Z,32.60
2018-10-11T13:21:36.360Z,33.10
2018-10-11T13:24:04.147Z,33.60
2018-10-11T13:26:31.860Z,33.40
2018-10-11T13:28:59.566Z,33.10
2018-10-11T13:31:27.176Z,32.90
2018-10-11T13:34:02.241Z,33.10
2018-10-11T13:36:29.905Z,32.90
2018-10-11T13:38:57.649Z,31.60
2018-10-11T13:41:25.436Z,30.70
2018-10-11T13:43:55.104Z,31.00
2018-10-11T13:48:50.160Z,31.30
2018-10-11T13:51:17.776Z,31.70
2018-10-11T13:53:57.884Z,31.60
2018-10-11T13:56:20.789Z,32.10
2018-10-11T13:58:48.550Z,31.00
2018-10-11T14:01:16.333Z,31.30
2018-10-11T14:03:44.608Z,31.80
2018-10-11T14:06:12.252Z,31.70
2018-10-11T14:08:39.904Z,31.70
2018-10-11T14:11:07.748Z,32.50
2018-10-11T14:13:42.604Z,32.60
2018-10-11T14:16:10.300Z,32.90
2018-10-11T14:18:38.768Z,33.00
2018-10-11T14:21:07.689Z,32.80
2018-10-11T14:23:36.949Z,32.60
2018-10-11T14:26:04.617Z,33.60
2018-10-11T14:28:32.656Z,33.00
2018-10-11T14:31:00.356Z,33.30
2018-10-11T14:33:35.236Z,33.10
2018-10-11T14:36:02.900Z,33.10
2018-10-11T14:38:30.548Z,33.30
2018-10-11T14:40:58.212Z,33.50
2018-10-11T14:43:27.949Z,33.40
2018-10-11T14:45:55.637Z,32.80
2018-10-11T14:48:23.346Z,31.70
2018-10-11T14:50:51.013Z,32.10
2018-10-11T14:53:32.985Z,32.50
2018-10-11T14:56:00.665Z,31.90
2018-10-11T14:58:28.396Z,32.00
2018-10-11T15:00:56.092Z,32.20
2018-10-11T15:03:27.128Z,31.90
2018-10-11T15:05:54.885Z,31.60
2018-10-11T15:08:22.484Z,32.00
2018-10-11T15:10:50.217Z,31.70
2018-10-11T15:13:19.896Z,31.60
2018-10-11T15:15:48.055Z,31.80
2018-10-11T15:18:15.564Z,31.80
2018-10-11T15:20:43.253Z,32.00
2018-10-11T15:23:14.704Z,32.50
2018-10-11T15:25:42.356Z,31.90
2018-10-11T15:28:10.026Z,31.90
2018-10-11T15:30:37.712Z,31.70
2018-10-11T15:33:05.392Z,31.30
2018-10-11T15:35:33.120Z,30.90
2018-10-11T15:43:03.124Z,29.30
2018-10-11T15:45:30.833Z,28.60
2018-10-11T15:47:58.524Z,28.10
2018-10-11T15:50:26.224Z,28.10
2018-10-11T15:52:57.415Z,28.30
2018-10-11T15:55:25.033Z,28.10
2018-10-11T16:00:20.229Z,27.40
2018-10-11T16:02:48.025Z,26.80
2018-10-11T16:05:15.725Z,26.20
2018-10-11T16:20:01.056Z,23.10
2018-10-11T16:22:37.626Z,22.50
2018-10-11T16:25:06.384Z,22.00
2018-10-11T16:30:01.642Z,21.30
2018-10-11T16:32:29.424Z,21.20
2018-10-11T16:34:57.213Z,20.70
2018-10-11T16:37:24.911Z,20.10
2018-10-11T16:42:19.981Z,19.90
2018-10-11T16:47:15.020Z,19.30
2018-10-11T16:49:42.746Z,19.00
2018-10-11T16:52:11.705Z,18.80
2018-10-11T16:54:43.387Z,18.70
2018-10-11T16:57:11.335Z,18.70
2018-10-11T16:59:39.053Z,18.60
2018-10-11T17:02:08.835Z,18.40
2018-10-11T17:04:36.572Z,18.40
2018-10-11T17:07:04.303Z,18.10
2018-10-11T17:09:32.085Z,18.20
2018-10-11T17:11:59.785Z,18.20
2018-10-11T17:14:27.428Z,18.00
2018-10-11T17:16:55.370Z,18.00
2018-10-11T17:19:23.248Z,17.80
2018-10-11T17:24:18.312Z,17.30
2018-10-11T17:26:46.007Z,16.80
2018-10-11T17:29:13.732Z,16.40
2018-10-11T17:31:41.437Z,16.30
2018-10-11T17:34:09.216Z,16.30
2018-10-11T17:36:36.888Z,16.00
2018-10-11T17:39:06.308Z,16.00
2018-10-11T17:41:34.020Z,15.90
2018-10-11T17:44:01.820Z,16.00
2018-10-11T17:46:29.516Z,16.00
2018-10-11T17:48:57.192Z,15.90
2018-10-11T17:51:24.865Z,15.70
2018-10-11T17:53:52.628Z,15.50
2018-10-11T17:56:20.316Z,15.50
2018-10-11T17:58:47.985Z,15.60
2018-10-11T18:01:15.632Z,15.50
2018-10-11T18:03:43.360Z,15.50
2018-10-11T18:06:11.004Z,15.70
2018-10-11T18:08:38.696Z,15.70
2018-10-11T18:11:06.392Z,15.50
2018-10-11T18:13:35.128Z,15.50
2018-10-11T18:16:02.846Z,15.30
2018-10-11T18:20:57.889Z,14.50
2018-10-11T18:23:25.696Z,14.30
2018-10-11T18:25:53.464Z,14.00
2018-10-11T18:28:21.176Z,14.20
2018-10-11T18:30:48.965Z,14.00
2018-10-11T18:33:16.656Z,14.10
2018-10-11T18:35:44.484Z,14.00
2018-10-11T18:38:12.213Z,14.10
2018-10-11T18:40:39.909Z,14.10
2018-10-11T18:43:08.628Z,14.20
2018-10-11T18:45:36.528Z,14.20
2018-10-11T18:48:04.223Z,13.80
2018-10-11T18:50:31.912Z,13.90
2018-10-11T18:53:00.433Z,14.00
2018-10-11T18:57:55.331Z,13.50
2018-10-11T19:00:22.881Z,13.30
2018-10-11T19:02:50.466Z,13.30
2018-10-11T19:05:18.066Z,13.10
2018-10-11T19:07:45.646Z,13.10
2018-10-11T19:10:13.172Z,13.30
2018-10-11T19:12:43.795Z,13.20
2018-10-11T19:15:11.319Z,13.20
2018-10-11T19:17:38.843Z,13.20
2018-10-11T19:20:06.364Z,13.20
2018-10-11T19:22:35.060Z,13.00
2018-10-11T19:25:02.639Z,12.90
2018-10-11T19:27:30.253Z,13.10
2018-10-11T19:29:57.796Z,13.20
2018-10-11T19:32:29.621Z,13.10
2018-10-11T19:34:57.148Z,12.70
2018-10-11T19:39:52.014Z,12.60
2018-10-11T19:42:20.679Z,12.60
2018-10-11T19:44:48.248Z,12.50
2018-10-11T19:47:15.879Z,12.50
2018-10-11T19:49:43.451Z,12.60
2018-10-11T19:52:11.074Z,12.60
2018-10-11T19:54:38.609Z,12.70
2018-10-11T19:57:06.240Z,12.80
2018-10-11T19:59:33.759Z,12.90
2018-10-11T20:02:05.076Z,12.90
2018-10-11T20:04:32.612Z,12.90
2018-10-11T20:07:00.137Z,12.80
2018-10-11T20:09:27.704Z,12.90
2018-10-11T20:11:55.273Z,13.00
2018-10-11T20:16:57.194Z,13.00
2018-10-11T20:19:24.908Z,12.90
2018-10-11T20:21:52.592Z,12.90
2018-10-11T20:24:20.265Z,12.80
2018-10-11T20:26:48.017Z,12.80
2018-10-11T20:29:15.696Z,12.90
2018-10-11T20:31:43.336Z,12.70
2018-10-11T20:34:11.125Z,12.80
2018-10-11T20:36:38.782Z,12.80
2018-10-11T20:39:07.504Z,12.60
2018-10-11T20:41:35.152Z,12.70
2018-10-11T20:44:06.571Z,12.60
2018-10-11T20:46:34.184Z,12.40
2018-10-11T20:49:01.853Z,12.30
2018-10-11T20:51:29.711Z,12.40
2018-10-11T20:53:57.304Z,12.40
2018-10-11T20:56:24.819Z,12.50
2018-10-11T20:58:52.355Z,12.40
2018-10-11T21:01:19.932Z,12.10
2018-10-11T21:03:48.563Z,11.80
2018-10-11T21:06:16.131Z,11.60
2018-10-11T21:08:43.668Z,11.60
2018-10-11T21:11:11.252Z,11.90
2018-10-11T21:13:40.909Z,11.90
2018-10-11T21:16:08.424Z,12.00
2018-10-11T21:18:35.972Z,12.00
2018-10-11T21:21:03.544Z,12.00
2018-10-11T21:23:49.212Z,12.10
2018-10-11T21:26:16.785Z,12.00
2018-10-11T21:28:44.264Z,12.00
2018-10-11T21:31:11.812Z,12.10
2018-10-11T21:33:58.175Z,12.00
2018-10-11T21:36:25.688Z,11.90
2018-10-11T21:38:53.267Z,11.70
2018-10-11T21:41:20.856Z,11.90
2018-10-11T21:43:52.700Z,11.70
2018-10-11T21:46:20.311Z,11.50
2018-10-11T21:48:47.869Z,11.50
2018-10-11T21:51:15.446Z,11.60
2018-10-11T21:53:43.100Z,11.60
2018-10-11T21:56:10.628Z,11.60
2018-10-11T21:58:38.195Z,11.70
2018-10-11T22:01:11.273Z,11.70
2018-10-11T22:03:38.957Z,11.60
2018-10-11T22:06:06.545Z,11.80
2018-10-11T22:08:34.149Z,12.00
2018-10-11T22:11:01.654Z,11.90
2018-10-11T22:13:31.335Z,11.90
2018-10-11T22:15:58.957Z,12.20
2018-10-11T22:18:26.500Z,12.30
2018-10-11T22:20:54.182Z,12.30
2018-10-11T22:23:25.494Z,12.30
2018-10-11T22:25:53.056Z,12.30
2018-10-11T22:28:20.599Z,12.20
2018-10-11T22:30:48.164Z,11.90
2018-10-11T22:33:21.300Z,11.80
2018-10-11T22:35:48.851Z,11.70
2018-10-11T22:38:16.388Z,11.80
2018-10-11T22:40:43.909Z,11.70
2018-10-11T22:43:17.195Z,11.70
2018-10-11T22:45:44.728Z,11.80
2018-10-11T22:48:12.293Z,11.80
2018-10-11T22:50:39.884Z,11.90
2018-10-11T22:53:07.566Z,12.10
2018-10-11T22:55:35.157Z,12.10
2018-10-11T22:58:02.743Z,12.00
2018-10-11T23:00:30.672Z,12.00
2018-10-11T23:02:59.271Z,12.00
2018-10-11T23:05:30.288Z,12.10
2018-10-11T23:08:11.392Z,12.30
2018-10-11T23:10:38.975Z,12.40
2018-10-11T23:13:10.347Z,12.30
2018-10-11T23:15:37.883Z,12.10
2018-10-11T23:18:05.535Z,12.30
2018-10-11T23:20:33.045Z,12.40
2018-10-11T23:23:00.602Z,12.40
2018-10-11T23:25:28.148Z,12.50
2018-10-11T23:27:55.775Z,12.50
2018-10-11T23:30:23.728Z,12.10
2018-10-11T23:32:51.299Z,12.00
2018-10-11T23:35:18.820Z,12.10
2018-10-11T23:37:46.372Z,12.10
2018-10-11T23:40:13.921Z,12.20
2018-10-11T23:42:49.239Z,12.20
2018-10-11T23:45:16.794Z,12.20
2018-10-11T23:47:44.344Z,12.20
2018-10-11T23:50:11.891Z,12.30
2018-10-11T23:52:46.620Z,12.40
2018-10-11T23:55:14.155Z,12.40
2018-10-11T23:57:41.663Z,12.50
